Terminal Aerodrome Forecast
Issued by NWS Grand Forks, ND

Home | Current Version | Previous Version | Text Only | Print | Product List | Glossary Off
Versions: 1 2 3 4 5 6 7 8 9 10 11 12 13

169
FTUS43 KFGF 211134
TAFGFK
TAF
KGFK 211134Z 2112/2212 17005KT P6SM BKN110
     FM211400 18010KT P6SM SCT080=

USA.gov is the U.S. government's official web portal to all federal, state and local government web resources and services.